Have a Safe July 4th! 

Flight Track Log - Related Links

Times and Time Zones

All times are in EDT time to prevent confusion due to time zone crossing. See the N210PM flight status page for this flight to view local times or setup timezone preferences in your user account.

Time Position Orientation Groundspeed Altitude Reporting Facility
EDT Latitude Longitude Course Direction KTS MPH feet Rate Location/Type
Sun 08:18:00 PM 29.5236 -98.4733 225° Southwest 135 155 1,500  Level Houston Center
Sun 08:18:48 PM 29.4989 -98.5014 225° Southwest 143 165 3,400 2,257 Climbing Houston Center
Sun 08:19:49 PM 29.4667 -98.5403 226° Southwest 172 198 5,600 2,182 Climbing Houston Center
Sun 08:20:49 PM 29.4647 -98.5861 267° West 177 204 7,800 2,112 Climbing Houston Center
Sun 08:21:54 PM 29.5228 -98.5767 North 206 237 10,000 1,984 Climbing Houston Center
Sun 08:22:56 PM 29.5803 -98.5592 15° North 208 239 12,000 1,694 Climbing Houston Center
Sun 08:23:58 PM 29.6456 -98.5392 15° North 224 258 13,500 1,694 Climbing Houston Center
Sun 08:25:00 PM 29.7050 -98.5200 16° North 221 254 15,500 1,742 Climbing Houston Center
Sun 08:26:02 PM 29.7706 -98.5083 North 221 254 17,100 1,440 Climbing Houston Center
Sun 08:27:05 PM 29.8325 -98.4992 North 222 255 18,500 1,344 Climbing Houston Center
Sun 08:28:07 PM 29.8983 -98.4900 North 234 269 19,900 1,258 Climbing Houston Center
Sun 08:29:09 PM 29.9697 -98.4803 North 236 272 21,100 1,161 Climbing Houston Center
Sun 08:30:11 PM 30.0389 -98.4706 North 244 281 22,300 919 Climbing Houston Center
Sun 08:31:13 PM 30.1172 -98.4606 North 262 302 23,000 629 Climbing Houston Center
Sun 08:32:15 PM 30.2017 -98.4478 North 304 350 23,600 1,161 Climbing Houston Center
Sun 08:33:17 PM 30.2847 -98.4358 North 276 318 25,400 1,403 Climbing Houston Center
Sun 08:34:19 PM 30.3483 -98.4272 North 271 312 26,500 968 Climbing Houston Center
Sun 08:35:21 PM 30.4239 -98.4169 North 270 311 27,400 919 Climbing Houston Center
Sun 08:36:23 PM 30.5172 -98.4039 North 275 316 28,400 871 Climbing Houston Center
Sun 08:37:25 PM 30.5992 -98.3922 North 289 333 29,200 726 Climbing Houston Center
Sun 08:38:27 PM 30.6825 -98.3817 North 295 339 29,900 629 Climbing Houston Center
Sun 08:39:29 PM 30.7661 -98.3692 North 299 344 30,500 629 Climbing Houston Center
Sun 08:40:31 PM 30.8519 -98.3567 North 303 349 31,200 771 Climbing Houston Center
Sun 08:41:18 PM 30.9186 -98.3481 North 308 354 31,900 1,000 Climbing Fort Worth Center
Sun 08:42:19 PM 31.0019 -98.3364 North 304 350 33,000 634 Climbing Fort Worth Center
Sun 08:43:21 PM 31.0883 -98.3236 North 308 354 33,200 581 Climbing Fort Worth Center
Sun 08:44:23 PM 31.1778 -98.3117 North 320 368 34,200 871 Climbing Fort Worth Center
Sun 08:45:25 PM 31.2794 -98.2969 North 309 356 35,000 390 Climbing Fort Worth Center
Sun 08:46:26 PM 31.3658 -98.2861 North 308 354 35,000  Level Fort Worth Center
Sun 08:47:28 PM 31.4586 -98.2722 North 325 374 35,000  Level Fort Worth Center
Sun 08:48:30 PM 31.5564 -98.2592 North 345 397 35,000  Level Fort Worth Center
Sun 08:49:32 PM 31.6553 -98.2447 North 351 404 35,000  Level Fort Worth Center
Sun 08:50:33 PM 31.7550 -98.2308 North 357 411 35,000  Level Fort Worth Center
Sun 08:51:35 PM 31.8544 -98.2158 North 357 411 35,000  Level Fort Worth Center
Sun 08:52:37 PM 31.9636 -98.1997 North 357 411 35,000  Level Fort Worth Center
Sun 08:53:39 PM 32.0614 -98.1853 North 357 411 35,000  Level Fort Worth Center
Sun 08:54:40 PM 32.1597 -98.1717 North 356 410 35,000  Level Fort Worth Center
Sun 08:55:42 PM 32.2581 -98.1569 North 355 409 35,000  Level Fort Worth Center
Sun 08:56:44 PM 32.3767 -98.1397 North 356 410 35,000  Level Fort Worth Center
Sun 08:57:46 PM 32.4747 -98.1253 North 356 410 35,000  Level Fort Worth Center
Sun 08:58:47 PM 32.5736 -98.1111 North 356 410 35,000  Level Fort Worth Center
Sun 08:59:49 PM 32.6731 -98.0944 North 357 411 35,000  Level Fort Worth Center
Sun 09:00:51 PM 32.7719 -98.0803 North 358 412 35,000  Level Fort Worth Center
Sun 09:01:53 PM 32.8717 -98.0653 North 358 412 35,000  Level Fort Worth Center
Sun 09:02:55 PM 32.9694 -98.0678 359° North 355 409 35,000  Level Fort Worth Center
Sun 09:03:56 PM 33.0800 -98.0792 355° North 335 386 35,000  Level Fort Worth Center
Sun 09:04:58 PM 33.1719 -98.0933 353° North 333 383 35,000  Level Fort Worth Center
Sun 09:06:00 PM 33.2644 -98.1089 352° North 333 383 35,000  Level Fort Worth Center
Sun 09:07:02 PM 33.3583 -98.1186 355° North 333 383 35,000  Level Fort Worth Center
Sun 09:08:03 PM 33.4500 -98.1325 353° North 333 383 35,000  Level Fort Worth Center
Sun 09:09:05 PM 33.5556 -98.1472 353° North 342 394 35,000  Level Fort Worth Center
Sun 09:10:07 PM 33.6386 -98.1492 359° North 333 383 35,000  Level Fort Worth Center
Sun 09:11:09 PM 33.7369 -98.1300 North 351 404 35,000  Level Fort Worth Center
Sun 09:12:10 PM 33.8572 -98.1097 North 358 412 35,000  Level Fort Worth Center
Sun 09:13:12 PM 33.9578 -98.0917 North 362 417 35,000  Level Fort Worth Center
Sun 09:14:14 PM 34.0594 -98.0744 North 364 419 35,000  Level Fort Worth Center
Sun 09:15:16 PM 34.1536 -98.0589 North 366 421 35,000  Level Fort Worth Center
Sun 09:16:17 PM 34.2539 -98.0414 North 366 421 35,000  Level Fort Worth Center
Sun 09:17:19 PM 34.3747 -98.0194 North 365 420 35,000  Level Fort Worth Center
Sun 09:18:21 PM 34.4756 -98.0025 North 365 420 35,000  Level Fort Worth Center
Sun 09:19:23 PM 34.5772 -97.9825 North 368 423 35,000  Level Fort Worth Center
Sun 09:20:24 PM 34.6781 -97.9664 North 367 422 35,000  Level Fort Worth Center
Sun 09:21:26 PM 34.7817 -97.9478 North 373 429 35,000  Level Fort Worth Center
Sun 09:22:28 PM 34.8853 -97.9283 North 374 430 35,000  Level Fort Worth Center
Sun 09:23:29 PM 34.9897 -97.9083 North 378 435 35,000  Level Fort Worth Center
Sun 09:24:31 PM 35.1156 -97.8864 North 378 435 35,000  Level Fort Worth Center
Sun 09:25:33 PM 35.2206 -97.8678 North 378 435 35,000  Level Fort Worth Center
Sun 09:26:34 PM 35.3244 -97.8481 North 377 434 35,000  Level Fort Worth Center
Sun 09:27:36 PM 35.4286 -97.8283 North 376 433 35,000  Level Fort Worth Center
Sun 09:28:38 PM 35.5333 -97.8097 North 376 433 35,000  Level Fort Worth Center
Sun 09:29:39 PM 35.6372 -97.7900 North 376 433 35,000  Level Fort Worth Center
Sun 09:30:41 PM 35.7422 -97.7719 North 376 433 35,000  Level Fort Worth Center
Sun 09:31:42 PM 35.8475 -97.7522 North 376 433 35,000  Level Fort Worth Center
Sun 09:32:12 PM 35.9097 -97.7397 North 378 435 35,000  Level Kansas City Center
Sun 09:33:13 PM 36.0142 -97.7206 North 378 435 35,000  Level Kansas City Center
Sun 09:34:14 PM 36.1194 -97.7008 North 378 435 35,000  Level Kansas City Center
Sun 09:35:15 PM 36.2233 -97.6817 North 379 436 35,000  Level Kansas City Center
Sun 09:36:16 PM 36.3292 -97.6617 North 380 437 35,000  Level Kansas City Center
Sun 09:37:17 PM 36.4353 -97.6422 North 381 438 35,000  Level Kansas City Center
Sun 09:38:18 PM 36.5417 -97.6214 North 385 443 35,000  Level Kansas City Center
Sun 09:39:19 PM 36.6583 -97.5986 North 387 445 35,000  Level Kansas City Center
Sun 09:40:20 PM 36.7650 -97.5783 North 388 447 35,000  Level Kansas City Center
Sun 09:41:22 PM 36.8725 -97.5586 North 388 447 35,000  Level Kansas City Center
Sun 09:42:23 PM 36.9792 -97.5392 North 388 447 35,000  Level Kansas City Center
Sun 09:43:24 PM 37.0878 -97.5178 North 391 450 35,000  Level Kansas City Center
Sun 09:44:25 PM 37.1961 -97.4972 North 391 450 35,000  Level Kansas City Center
Sun 09:45:26 PM 37.3033 -97.4764 North 391 450 35,000  Level Kansas City Center
Sun 09:46:27 PM 37.4094 -97.4581 North 391 450 35,000  Level Kansas City Center
Sun 09:47:28 PM 37.5369 -97.4317 North 390 449 35,000  Level Kansas City Center
Sun 09:48:29 PM 37.6433 -97.4114 North 389 448 35,000  Level Kansas City Center
Sun 09:49:30 PM 37.7475 -97.3903 North 385 443 35,000  Level Kansas City Center
Sun 09:50:31 PM 37.8531 -97.3703 North 386 444 35,000  Level Kansas City Center
Sun 09:51:32 PM 37.9575 -97.3500 North 386 444 35,000  Level Kansas City Center
Sun 09:52:33 PM 38.0622 -97.3297 North 385 443 35,000  Level Kansas City Center
Sun 09:53:34 PM 38.1661 -97.3075 10° North 381 438 35,000  Level Kansas City Center
Sun 09:54:35 PM 38.2722 -97.2875 North 383 441 35,000  Level Kansas City Center
Sun 09:55:36 PM 38.3992 -97.2631 North 385 443 35,000  Level Kansas City Center
Sun 09:56:37 PM 38.5044 -97.2428 North 385 443 35,000  Level Kansas City Center
Sun 09:57:38 PM 38.6094 -97.2225 North 384 442 35,000  Level Kansas City Center
Sun 09:58:39 PM 38.7147 -97.2008 North 384 442 35,000  Level Kansas City Center
Sun 09:59:42 PM 38.8200 -97.1792 North 384 442 35,000  Level Kansas City Center
Sun 10:00:43 PM 38.9258 -97.1592 North 384 442 35,000  Level Kansas City Center
Sun 10:01:44 PM 39.0317 -97.1358 10° North 385 443 35,000  Level Kansas City Center
Sun 10:02:45 PM 39.1367 -97.1133 North 385 443 35,000 -295 Level Kansas City Center
Sun 10:03:46 PM 39.2422 -97.0931 North 385 443 34,400 -1,525 Descending Kansas City Center
Sun 10:04:47 PM 39.3756 -97.0658 North 400 460 31,900 -2,311 Descending Kansas City Center
Sun 10:05:48 PM 39.4767 -97.0458 North 373 429 29,700 -2,016 Descending Kansas City Center
Sun 10:06:49 PM 39.5675 -97.0281 North 335 386 27,800 -1,869 Descending Kansas City Center
Sun 10:07:50 PM 39.6533 -97.0094 North 319 367 25,900 -1,820 Descending Kansas City Center
Sun 10:08:51 PM 39.7386 -96.9928 North 314 361 24,100 -934 Descending Kansas City Center
Sun 10:09:52 PM 39.8244 -96.9731 10° North 295 339 24,000 -49 Descending Kansas City Center
Sun 10:10:53 PM 39.8983 -96.9572 North 274 315 24,000  Level Kansas City Center
Sun 10:11:33 PM 39.9383 -96.9489 North 276 318 24,000 -765 Level Minneapolis Center
Sun 10:12:35 PM 40.0136 -96.9336 North 275 316 22,700 -1,610 Descending Minneapolis Center
Sun 10:13:36 PM 40.0939 -96.9181 North 283 326 20,700 -2,146 Descending Minneapolis Center
Sun 10:14:38 PM 40.1928 -96.8981 North 293 337 18,300 -2,242 Descending Minneapolis Center
Sun 10:15:07 PM 40.2183 -96.8717 38° Northeast 297 342 17,300 -1,967 Descending Minneapolis Center
Sun 10:15:39 PM 40.2725 -96.8817 352° North 294 338 16,300 -1,915 Descending Minneapolis Center
Sun 10:16:41 PM 40.3467 -96.8625 11° North 281 323 14,300 -1,951 Descending Minneapolis Center
Sun 10:17:42 PM 40.4108 -96.8231 25° Northeast 264 304 12,300 -2,000 Descending Minneapolis Center
Sun 10:18:44 PM 40.4761 -96.7944 18° North 253 291 10,200 -2,294 Descending Minneapolis Center
Sun 10:19:58 PM 40.5439 -96.7569 23° Northeast 213 245 7,100 -2,049 Descending Minneapolis Center
Sun 10:20:47 PM 40.5917 -96.7586 358° North 211 243 6,000 -1,400 Descending Minneapolis Center
Sun 10:20:58 PM 40.5958 -96.7514 53° Northeast 172 198 5,700 -885 Descending Minneapolis Center
Sun 10:21:48 PM 40.6386 -96.7633 348° North 187 215 5,100 -911 Descending Minneapolis Center
Sun 10:22:50 PM 40.6897 -96.7633 360° North 167 192 4,000 -829 Descending Minneapolis Center
Sun 10:23:51 PM 40.7219 -96.7650 358° North 142 163 3,400 -488 Descending Minneapolis Center
Sun 10:24:53 PM 40.7417 -96.7636 North 102 117 3,000 -439 Descending Minneapolis Center
Sun 10:25:54 PM 40.7600 -96.7628 North 81 93 2,500 -439 Descending Minneapolis Center
Sun 10:26:56 PM 40.7825 -96.7622 North 77 89 2,100 -439 Descending Minneapolis Center
Sun 10:27:57 PM 40.7989 -96.7556 17° North 90 104 1,600 -492 Descending Minneapolis Center
Sun 10:29:00 PM 40.8500 -96.7500 North  Level FlightAware Approximate
Sun 10:36:00 PM 40.8509 -96.7591 North  Level Estimated

Login

Don't have an account? Register now (free) for customized features, flight alerts, and more!